AEE764 LGAV-EFHK
Flight info
| Callsign | AEE764 |
|---|---|
| Flight time | 3h 27m |
| Altitude | 38000 |
| Route | KRO UG33 KOROS DCT ATFIR DCT LOMOS DCT OLMIP DCT KEKED/N0433F390 DCT PODAN M857 BOKSU DCT GUNTA M857 SOKVA DCT KEMET Q11 INTOR |
| Aircraft | A20N/M-SDE2E3FGHIRWXY/LB1 |
Departure
| Time | 2026-05-07 13:28 |
|---|---|
| Airport | Athens Eleftherios Venizelos International Airport (LGAV) |
Arrival
| Time | 2026-05-07 16:56 |
|---|---|
| Airport | Helsinki Vantaa Airport (EFHK) |
| Time | Latitude | Longitude | Altitude | Speed | Heading |
|---|---|---|---|---|---|
| 2026-05-07 13:01 | 37.93137 | 23.94362 | 277 ft | 0 kts | 211° |
| 2026-05-07 13:16 | 37.93140 | 23.94364 | 283 ft | 2 kts | 211° |
| 2026-05-07 13:16 | 37.93155 | 23.94376 | 283 ft | 2 kts | 211° |
| 2026-05-07 13:16 | 37.93163 | 23.94382 | 283 ft | 2 kts | 211° |
| 2026-05-07 13:16 | 37.93179 | 23.94394 | 289 ft | 2 kts | 211° |
| 2026-05-07 13:17 | 37.93192 | 23.94403 | 284 ft | 2 kts | 189° |
| 2026-05-07 13:17 | 37.93213 | 23.94399 | 286 ft | 3 kts | 146° |
| 2026-05-07 13:17 | 37.93228 | 23.94380 | 284 ft | 3 kts | 127° |
| 2026-05-07 13:17 | 37.93234 | 23.94371 | 284 ft | 0 kts | 126° |
| 2026-05-07 13:21 | 37.93229 | 23.94378 | 284 ft | 4 kts | 126° |
| 2026-05-07 13:21 | 37.93199 | 23.94432 | 291 ft | 11 kts | 126° |
| 2026-05-07 13:21 | 37.93141 | 23.94529 | 286 ft | 16 kts | 128° |
| 2026-05-07 13:21 | 37.93070 | 23.94648 | 284 ft | 18 kts | 119° |
| 2026-05-07 13:22 | 37.93113 | 23.94768 | 285 ft | 18 kts | 36° |
| 2026-05-07 13:22 | 37.93214 | 23.94864 | 286 ft | 19 kts | 37° |
| 2026-05-07 13:22 | 37.93321 | 23.94965 | 291 ft | 20 kts | 37° |
| 2026-05-07 13:22 | 37.93434 | 23.95071 | 291 ft | 21 kts | 37° |
| 2026-05-07 13:23 | 37.93549 | 23.95183 | 294 ft | 21 kts | 37° |
| 2026-05-07 13:23 | 37.93669 | 23.95297 | 293 ft | 22 kts | 37° |
| 2026-05-07 13:23 | 37.93795 | 23.95417 | 296 ft | 23 kts | 37° |
| 2026-05-07 13:23 | 37.93926 | 23.95539 | 300 ft | 24 kts | 36° |
| 2026-05-07 13:24 | 37.94060 | 23.95664 | 302 ft | 24 kts | 36° |
| 2026-05-07 13:24 | 37.94193 | 23.95795 | 301 ft | 24 kts | 38° |
| 2026-05-07 13:24 | 37.94330 | 23.95927 | 301 ft | 25 kts | 37° |
| 2026-05-07 13:24 | 37.94470 | 23.96061 | 303 ft | 26 kts | 37° |
| 2026-05-07 13:25 | 37.94613 | 23.96198 | 305 ft | 26 kts | 37° |
| 2026-05-07 13:25 | 37.94760 | 23.96334 | 306 ft | 26 kts | 36° |
| 2026-05-07 13:25 | 37.94906 | 23.96473 | 308 ft | 26 kts | 37° |
| 2026-05-07 13:25 | 37.95053 | 23.96613 | 310 ft | 26 kts | 37° |
| 2026-05-07 13:26 | 37.95201 | 23.96756 | 312 ft | 27 kts | 37° |
| 2026-05-07 13:26 | 37.95350 | 23.96896 | 313 ft | 24 kts | 36° |
| 2026-05-07 13:26 | 37.95353 | 23.97017 | 313 ft | 15 kts | 164° |
| 2026-05-07 13:26 | 37.95240 | 23.97034 | 313 ft | 17 kts | 178° |
| 2026-05-07 13:27 | 37.95134 | 23.96963 | 313 ft | 20 kts | 217° |
| 2026-05-07 13:27 | 37.94873 | 23.96716 | 310 ft | 79 kts | 217° |
| 2026-05-07 13:27 | 37.94281 | 23.96154 | 303 ft | 130 kts | 216° |
| 2026-05-07 13:27 | 37.93447 | 23.95366 | 325 ft | 164 kts | 217° |
| 2026-05-07 13:28 | 37.92525 | 23.94598 | 868 ft | 159 kts | 209° |
| 2026-05-07 13:28 | 37.91523 | 23.93903 | 1259 ft | 170 kts | 209° |
| 2026-05-07 13:28 | 37.90455 | 23.93175 | 1678 ft | 178 kts | 208° |
| 2026-05-07 13:28 | 37.89320 | 23.92417 | 2103 ft | 190 kts | 208° |
| 2026-05-07 13:29 | 37.88119 | 23.91627 | 2576 ft | 199 kts | 208° |
| 2026-05-07 13:29 | 37.86852 | 23.90808 | 3094 ft | 209 kts | 207° |
| 2026-05-07 13:29 | 37.85514 | 23.89958 | 3653 ft | 221 kts | 207° |
| 2026-05-07 13:29 | 37.84071 | 23.89053 | 4164 ft | 241 kts | 206° |
| 2026-05-07 13:30 | 37.82531 | 23.88100 | 4767 ft | 257 kts | 206° |
| 2026-05-07 13:30 | 37.80846 | 23.87070 | 5427 ft | 274 kts | 206° |
| 2026-05-07 13:30 | 37.79091 | 23.86061 | 6137 ft | 286 kts | 199° |
| 2026-05-07 13:30 | 37.77155 | 23.85826 | 7311 ft | 277 kts | 172° |
| 2026-05-07 13:31 | 37.75331 | 23.86683 | 8296 ft | 280 kts | 146° |
| 2026-05-07 13:31 | 37.73998 | 23.88439 | 9125 ft | 285 kts | 120° |
| 2026-05-07 13:31 | 37.73387 | 23.90823 | 9971 ft | 289 kts | 94° |
| 2026-05-07 13:31 | 37.73623 | 23.93396 | 10493 ft | 307 kts | 70° |
| 2026-05-07 13:32 | 37.74731 | 23.95803 | 10785 ft | 330 kts | 47° |
| 2026-05-07 13:32 | 37.76602 | 23.97561 | 11319 ft | 341 kts | 26° |
| 2026-05-07 13:32 | 37.78780 | 23.98814 | 12118 ft | 345 kts | 23° |
| 2026-05-07 13:32 | 37.80980 | 24.00075 | 12911 ft | 349 kts | 25° |
| 2026-05-07 13:33 | 37.83152 | 24.01483 | 13678 ft | 353 kts | 28° |
| 2026-05-07 13:33 | 37.85275 | 24.03007 | 14408 ft | 357 kts | 30° |
| 2026-05-07 13:33 | 37.87415 | 24.04634 | 15176 ft | 360 kts | 31° |
| 2026-05-07 13:33 | 37.89560 | 24.06306 | 15876 ft | 364 kts | 31° |
| 2026-05-07 13:34 | 37.91725 | 24.08006 | 16556 ft | 368 kts | 31° |
| 2026-05-07 13:34 | 37.96127 | 24.11465 | 17867 ft | 376 kts | 31° |
| 2026-05-07 13:34 | 37.98359 | 24.13218 | 18500 ft | 379 kts | 31° |
| 2026-05-07 13:35 | 38.00616 | 24.14989 | 19112 ft | 383 kts | 31° |
| 2026-05-07 13:35 | 38.02891 | 24.16776 | 19714 ft | 386 kts | 31° |
| 2026-05-07 13:35 | 38.05184 | 24.18576 | 20308 ft | 390 kts | 31° |
| 2026-05-07 13:35 | 38.07471 | 24.20373 | 20870 ft | 393 kts | 31° |
| 2026-05-07 13:36 | 38.09804 | 24.22208 | 21427 ft | 397 kts | 31° |
| 2026-05-07 13:36 | 38.12173 | 24.24073 | 21899 ft | 403 kts | 31° |
| 2026-05-07 13:36 | 38.14558 | 24.25952 | 22500 ft | 404 kts | 31° |
| 2026-05-07 13:36 | 38.16965 | 24.27849 | 22981 ft | 409 kts | 31° |
| 2026-05-07 13:37 | 38.19387 | 24.29760 | 23566 ft | 410 kts | 31° |
| 2026-05-07 13:37 | 38.21815 | 24.31677 | 24109 ft | 412 kts | 31° |
| 2026-05-07 13:37 | 38.24268 | 24.33615 | 24562 ft | 416 kts | 31° |
| 2026-05-07 13:37 | 38.26736 | 24.35566 | 25036 ft | 419 kts | 31° |
| 2026-05-07 13:38 | 38.29223 | 24.37534 | 25496 ft | 422 kts | 31° |
| 2026-05-07 13:38 | 38.31845 | 24.39224 | 25915 ft | 425 kts | 19° |
| 2026-05-07 13:38 | 38.34724 | 24.40064 | 26323 ft | 427 kts | 5° |
| 2026-05-07 13:38 | 38.37660 | 24.39994 | 26712 ft | 429 kts | 351° |
| 2026-05-07 13:39 | 38.40589 | 24.39203 | 27103 ft | 431 kts | 345° |
| 2026-05-07 13:39 | 38.43511 | 24.38267 | 27492 ft | 434 kts | 346° |
| 2026-05-07 13:39 | 38.46466 | 24.37427 | 27865 ft | 437 kts | 348° |
| 2026-05-07 13:39 | 38.49459 | 24.36705 | 28223 ft | 439 kts | 349° |
| 2026-05-07 13:40 | 38.52481 | 24.36061 | 28568 ft | 441 kts | 351° |
| 2026-05-07 13:40 | 38.55529 | 24.35453 | 28901 ft | 444 kts | 351° |
| 2026-05-07 13:40 | 38.58588 | 24.34858 | 29222 ft | 446 kts | 351° |
| 2026-05-07 13:40 | 38.61673 | 24.34259 | 29532 ft | 448 kts | 351° |
| 2026-05-07 13:41 | 38.64766 | 24.33658 | 29837 ft | 450 kts | 351° |
| 2026-05-07 13:41 | 38.67872 | 24.33051 | 30145 ft | 453 kts | 351° |
| 2026-05-07 13:41 | 38.70995 | 24.32439 | 30449 ft | 455 kts | 351° |
| 2026-05-07 13:41 | 38.74128 | 24.31824 | 30753 ft | 457 kts | 351° |
| 2026-05-07 13:42 | 38.77277 | 24.31205 | 31051 ft | 459 kts | 351° |
| 2026-05-07 13:42 | 38.80395 | 24.30592 | 31401 ft | 459 kts | 351° |
| 2026-05-07 13:42 | 38.83552 | 24.29971 | 31793 ft | 458 kts | 351° |
| 2026-05-07 13:42 | 38.86698 | 24.29351 | 32172 ft | 457 kts | 351° |
| 2026-05-07 13:43 | 38.89846 | 24.28730 | 32540 ft | 457 kts | 351° |
| 2026-05-07 13:43 | 38.92983 | 24.28111 | 32905 ft | 456 kts | 351° |
| 2026-05-07 13:43 | 38.96113 | 24.27492 | 33235 ft | 455 kts | 351° |
| 2026-05-07 13:43 | 38.99246 | 24.26873 | 33570 ft | 455 kts | 351° |
| 2026-05-07 13:44 | 39.02373 | 24.26254 | 33891 ft | 454 kts | 351° |
| 2026-05-07 13:44 | 39.05499 | 24.25635 | 34201 ft | 453 kts | 351° |
| 2026-05-07 13:44 | 39.08614 | 24.25018 | 34497 ft | 453 kts | 351° |
| 2026-05-07 13:44 | 39.11722 | 24.24401 | 34784 ft | 452 kts | 351° |
| 2026-05-07 13:45 | 39.14827 | 24.23785 | 35057 ft | 451 kts | 351° |
| 2026-05-07 13:45 | 39.17935 | 24.23167 | 35328 ft | 451 kts | 351° |
| 2026-05-07 13:45 | 39.20991 | 24.22559 | 35583 ft | 450 kts | 351° |
| 2026-05-07 13:45 | 39.24086 | 24.21942 | 35831 ft | 450 kts | 351° |
| 2026-05-07 13:46 | 39.27178 | 24.21326 | 36070 ft | 449 kts | 351° |
| 2026-05-07 13:46 | 39.30267 | 24.20710 | 36292 ft | 449 kts | 351° |
| 2026-05-07 13:46 | 39.33357 | 24.20093 | 36491 ft | 449 kts | 351° |
| 2026-05-07 13:46 | 39.36446 | 24.19475 | 36691 ft | 449 kts | 351° |
| 2026-05-07 13:47 | 39.39537 | 24.18857 | 36875 ft | 449 kts | 351° |
| 2026-05-07 13:47 | 39.42631 | 24.18238 | 37059 ft | 449 kts | 351° |
| 2026-05-07 13:47 | 39.45718 | 24.17619 | 37232 ft | 449 kts | 351° |
| 2026-05-07 13:47 | 39.48811 | 24.16998 | 37408 ft | 449 kts | 351° |
| 2026-05-07 13:48 | 39.51895 | 24.16379 | 37569 ft | 449 kts | 351° |
| 2026-05-07 13:48 | 39.54944 | 24.15766 | 37735 ft | 449 kts | 351° |
| 2026-05-07 13:48 | 39.58030 | 24.15146 | 37885 ft | 449 kts | 351° |
| 2026-05-07 13:48 | 39.61124 | 24.14523 | 38004 ft | 449 kts | 351° |
| 2026-05-07 13:49 | 39.64213 | 24.13900 | 38001 ft | 449 kts | 351° |
| 2026-05-07 13:49 | 39.70373 | 24.12657 | 38000 ft | 448 kts | 351° |
| 2026-05-07 13:50 | 39.76534 | 24.11412 | 38000 ft | 448 kts | 351° |
| 2026-05-07 13:50 | 39.82699 | 24.10163 | 38000 ft | 448 kts | 351° |
| 2026-05-07 13:51 | 39.88865 | 24.08912 | 38000 ft | 448 kts | 351° |
| 2026-05-07 13:51 | 39.94989 | 24.07667 | 38001 ft | 448 kts | 351° |
| 2026-05-07 13:52 | 40.01150 | 24.06413 | 38001 ft | 448 kts | 351° |
| 2026-05-07 13:52 | 40.07311 | 24.05156 | 38000 ft | 448 kts | 351° |
| 2026-05-07 13:53 | 40.13469 | 24.03897 | 38001 ft | 448 kts | 351° |
| 2026-05-07 13:53 | 40.19634 | 24.02635 | 38001 ft | 448 kts | 351° |
| 2026-05-07 13:54 | 40.25794 | 24.01371 | 38001 ft | 448 kts | 351° |
| 2026-05-07 13:54 | 40.31963 | 24.00103 | 38002 ft | 448 kts | 351° |
| 2026-05-07 13:55 | 40.38124 | 23.98835 | 38001 ft | 448 kts | 351° |
| 2026-05-07 13:55 | 40.44284 | 23.97564 | 38002 ft | 448 kts | 351° |
| 2026-05-07 13:56 | 40.50417 | 23.96297 | 38003 ft | 448 kts | 351° |
| 2026-05-07 13:56 | 40.56592 | 23.95018 | 38003 ft | 448 kts | 351° |
| 2026-05-07 13:57 | 40.62754 | 23.93740 | 38002 ft | 448 kts | 351° |
| 2026-05-07 13:57 | 40.67329 | 23.92789 | 38002 ft | 448 kts | 351° |
| 2026-05-07 13:58 | 40.73496 | 23.91506 | 38002 ft | 448 kts | 351° |
| 2026-05-07 13:58 | 40.79616 | 23.90230 | 37999 ft | 448 kts | 351° |
| 2026-05-07 13:59 | 40.85785 | 23.88941 | 37994 ft | 448 kts | 351° |
| 2026-05-07 13:59 | 40.91950 | 23.87651 | 37997 ft | 448 kts | 351° |
| 2026-05-07 14:00 | 40.98120 | 23.86357 | 38001 ft | 448 kts | 351° |
| 2026-05-07 14:00 | 41.04281 | 23.85063 | 37991 ft | 448 kts | 351° |
| 2026-05-07 14:01 | 41.10448 | 23.83765 | 37999 ft | 450 kts | 351° |
| 2026-05-07 14:01 | 41.16633 | 23.82461 | 38001 ft | 455 kts | 351° |
| 2026-05-07 14:02 | 41.22860 | 23.81145 | 38000 ft | 450 kts | 351° |
| 2026-05-07 14:02 | 41.29092 | 23.79825 | 38000 ft | 453 kts | 351° |
| 2026-05-07 14:03 | 41.35283 | 23.78513 | 37999 ft | 451 kts | 351° |
| 2026-05-07 14:03 | 41.41529 | 23.77188 | 38001 ft | 456 kts | 351° |
| 2026-05-07 14:04 | 41.47761 | 23.75890 | 38001 ft | 453 kts | 351° |
| 2026-05-07 14:04 | 41.54020 | 23.74592 | 38001 ft | 455 kts | 351° |
| 2026-05-07 14:05 | 41.60208 | 23.73303 | 38000 ft | 450 kts | 351° |
| 2026-05-07 14:05 | 41.66422 | 23.72005 | 38000 ft | 453 kts | 351° |
| 2026-05-07 14:06 | 41.72609 | 23.70709 | 37999 ft | 453 kts | 351° |
| 2026-05-07 14:06 | 41.78852 | 23.69400 | 38000 ft | 454 kts | 351° |
| 2026-05-07 14:07 | 41.85101 | 23.68086 | 38001 ft | 456 kts | 351° |
| 2026-05-07 14:07 | 41.91400 | 23.66759 | 38000 ft | 456 kts | 351° |
| 2026-05-07 14:08 | 41.97627 | 23.65445 | 38000 ft | 457 kts | 351° |
| 2026-05-07 14:08 | 42.03915 | 23.64115 | 38000 ft | 454 kts | 351° |
| 2026-05-07 14:09 | 42.10193 | 23.62784 | 38000 ft | 459 kts | 351° |
| 2026-05-07 14:09 | 42.16496 | 23.61446 | 38000 ft | 463 kts | 351° |
| 2026-05-07 14:10 | 42.22880 | 23.60088 | 37999 ft | 464 kts | 351° |
| 2026-05-07 14:10 | 42.29194 | 23.58743 | 38000 ft | 454 kts | 351° |
| 2026-05-07 14:11 | 42.34417 | 23.57627 | 38000 ft | 454 kts | 351° |
| 2026-05-07 14:11 | 42.40633 | 23.56297 | 38000 ft | 454 kts | 351° |
| 2026-05-07 14:12 | 42.46888 | 23.54956 | 38000 ft | 454 kts | 351° |
| 2026-05-07 14:12 | 42.53054 | 23.53631 | 37998 ft | 441 kts | 351° |
| 2026-05-07 14:13 | 42.59014 | 23.52348 | 38001 ft | 433 kts | 351° |
| 2026-05-07 14:13 | 42.64999 | 23.51057 | 38000 ft | 435 kts | 351° |
| 2026-05-07 14:14 | 42.70912 | 23.49779 | 38000 ft | 434 kts | 351° |
| 2026-05-07 14:14 | 42.76913 | 23.48480 | 38000 ft | 435 kts | 351° |
| 2026-05-07 14:15 | 42.82856 | 23.47190 | 37987 ft | 435 kts | 351° |
| 2026-05-07 14:15 | 42.88843 | 23.45889 | 37994 ft | 435 kts | 351° |
| 2026-05-07 14:16 | 42.94822 | 23.44587 | 37983 ft | 435 kts | 351° |
| 2026-05-07 14:16 | 43.00808 | 23.43281 | 37978 ft | 435 kts | 351° |
| 2026-05-07 14:17 | 43.06789 | 23.41973 | 37993 ft | 435 kts | 351° |
| 2026-05-07 14:17 | 43.12777 | 23.40661 | 37999 ft | 436 kts | 351° |
| 2026-05-07 14:18 | 43.18742 | 23.39351 | 38002 ft | 436 kts | 351° |
| 2026-05-07 14:18 | 43.24738 | 23.38032 | 38021 ft | 437 kts | 351° |
| 2026-05-07 14:19 | 43.30748 | 23.36708 | 38037 ft | 437 kts | 351° |
| 2026-05-07 14:19 | 43.36766 | 23.35379 | 38041 ft | 438 kts | 351° |
| 2026-05-07 14:20 | 43.42785 | 23.34047 | 38037 ft | 438 kts | 351° |
| 2026-05-07 14:20 | 43.48763 | 23.32721 | 38044 ft | 437 kts | 351° |
| 2026-05-07 14:21 | 43.54766 | 23.31388 | 38037 ft | 437 kts | 351° |
| 2026-05-07 14:21 | 43.60762 | 23.30053 | 38032 ft | 436 kts | 351° |
| 2026-05-07 14:22 | 43.66740 | 23.28719 | 38022 ft | 435 kts | 351° |
| 2026-05-07 14:22 | 43.72712 | 23.27384 | 38014 ft | 433 kts | 351° |
| 2026-05-07 14:23 | 43.78656 | 23.26053 | 38004 ft | 432 kts | 351° |
| 2026-05-07 14:23 | 43.84557 | 23.24546 | 38000 ft | 430 kts | 344° |
| 2026-05-07 14:24 | 43.90321 | 23.22309 | 37991 ft | 429 kts | 344° |
| 2026-05-07 14:24 | 43.96046 | 23.20126 | 37984 ft | 429 kts | 344° |
| 2026-05-07 14:25 | 44.01793 | 23.17924 | 37962 ft | 428 kts | 344° |
| 2026-05-07 14:25 | 44.07530 | 23.15715 | 37965 ft | 427 kts | 344° |
| 2026-05-07 14:26 | 44.13259 | 23.13504 | 37967 ft | 427 kts | 344° |
| 2026-05-07 14:26 | 44.18995 | 23.11286 | 37971 ft | 427 kts | 344° |
| 2026-05-07 14:27 | 44.24727 | 23.09064 | 37975 ft | 428 kts | 344° |
| 2026-05-07 14:27 | 44.30436 | 23.06847 | 37978 ft | 428 kts | 344° |
| 2026-05-07 14:28 | 44.36185 | 23.04611 | 37984 ft | 429 kts | 344° |
| 2026-05-07 14:28 | 44.41956 | 23.02360 | 37985 ft | 430 kts | 344° |
| 2026-05-07 14:29 | 44.47729 | 23.00104 | 37989 ft | 431 kts | 343° |
| 2026-05-07 14:29 | 44.53467 | 22.97701 | 37995 ft | 432 kts | 343° |
| 2026-05-07 14:30 | 44.59269 | 22.95383 | 38006 ft | 433 kts | 344° |
| 2026-05-07 14:30 | 44.65052 | 22.93111 | 38010 ft | 434 kts | 344° |
| 2026-05-07 14:31 | 44.70878 | 22.90821 | 38019 ft | 435 kts | 344° |
| 2026-05-07 14:31 | 44.76725 | 22.88514 | 38023 ft | 435 kts | 344° |
| 2026-05-07 14:32 | 44.82531 | 22.86219 | 38023 ft | 436 kts | 344° |
| 2026-05-07 14:32 | 44.88364 | 22.83907 | 38027 ft | 436 kts | 344° |
| 2026-05-07 14:33 | 44.94208 | 22.81587 | 38018 ft | 436 kts | 344° |
| 2026-05-07 14:33 | 45.00042 | 22.79265 | 38017 ft | 435 kts | 344° |
| 2026-05-07 14:34 | 45.05868 | 22.76943 | 38006 ft | 435 kts | 344° |
| 2026-05-07 14:34 | 45.11696 | 22.74614 | 37995 ft | 434 kts | 344° |
| 2026-05-07 14:35 | 45.17509 | 22.72286 | 37991 ft | 433 kts | 344° |
| 2026-05-07 14:35 | 45.23283 | 22.69969 | 37963 ft | 433 kts | 344° |
| 2026-05-07 14:36 | 45.29092 | 22.67633 | 37998 ft | 436 kts | 344° |
| 2026-05-07 14:36 | 45.34971 | 22.65263 | 38002 ft | 441 kts | 344° |
| 2026-05-07 14:37 | 45.40847 | 22.62890 | 38000 ft | 440 kts | 344° |
| 2026-05-07 14:37 | 45.49665 | 22.59319 | 37999 ft | 435 kts | 344° |
| 2026-05-07 14:38 | 45.55466 | 22.56964 | 37987 ft | 433 kts | 343° |
| 2026-05-07 14:38 | 45.61282 | 22.54596 | 37986 ft | 434 kts | 343° |
| 2026-05-07 14:39 | 45.67064 | 22.52238 | 37979 ft | 435 kts | 343° |
| 2026-05-07 14:39 | 45.72878 | 22.49863 | 37985 ft | 435 kts | 343° |
| 2026-05-07 14:40 | 45.78705 | 22.47476 | 38003 ft | 436 kts | 343° |
| 2026-05-07 14:40 | 45.84544 | 22.45079 | 38025 ft | 437 kts | 343° |
| 2026-05-07 14:41 | 45.90388 | 22.42675 | 38038 ft | 437 kts | 343° |
| 2026-05-07 14:41 | 45.96245 | 22.40260 | 38038 ft | 438 kts | 343° |
| 2026-05-07 14:42 | 46.02104 | 22.37839 | 38047 ft | 438 kts | 343° |
| 2026-05-07 14:42 | 46.07961 | 22.35414 | 38042 ft | 438 kts | 343° |
| 2026-05-07 14:43 | 46.13819 | 22.32983 | 38025 ft | 437 kts | 343° |
| 2026-05-07 14:43 | 46.19630 | 22.30566 | 38023 ft | 436 kts | 343° |
| 2026-05-07 14:44 | 46.25477 | 22.28128 | 38026 ft | 435 kts | 343° |
| 2026-05-07 14:44 | 46.31272 | 22.25707 | 38021 ft | 434 kts | 343° |
| 2026-05-07 14:45 | 46.37082 | 22.23274 | 38010 ft | 433 kts | 343° |
| 2026-05-07 14:45 | 46.42840 | 22.20858 | 38003 ft | 432 kts | 343° |
| 2026-05-07 14:46 | 46.48634 | 22.18421 | 37985 ft | 431 kts | 343° |
| 2026-05-07 14:46 | 46.54362 | 22.16007 | 37964 ft | 430 kts | 343° |
| 2026-05-07 14:47 | 46.60112 | 22.13578 | 37970 ft | 429 kts | 343° |
| 2026-05-07 14:47 | 46.65821 | 22.11161 | 37983 ft | 429 kts | 343° |
| 2026-05-07 14:48 | 46.71564 | 22.08724 | 37982 ft | 429 kts | 343° |
| 2026-05-07 14:48 | 46.77316 | 22.06278 | 37986 ft | 430 kts | 343° |
| 2026-05-07 14:49 | 46.83020 | 22.03848 | 37985 ft | 430 kts | 343° |
| 2026-05-07 14:49 | 46.88772 | 22.01391 | 37987 ft | 431 kts | 343° |
| 2026-05-07 14:50 | 46.94530 | 21.98926 | 37993 ft | 431 kts | 343° |
| 2026-05-07 14:50 | 47.00299 | 21.96451 | 38001 ft | 432 kts | 343° |
| 2026-05-07 14:51 | 47.06075 | 21.93967 | 38008 ft | 433 kts | 343° |
| 2026-05-07 14:51 | 47.11862 | 21.91473 | 38011 ft | 433 kts | 343° |
| 2026-05-07 14:52 | 47.17617 | 21.88987 | 38016 ft | 434 kts | 343° |
| 2026-05-07 14:52 | 47.23412 | 21.86478 | 38019 ft | 434 kts | 343° |
| 2026-05-07 14:53 | 47.29210 | 21.83962 | 38022 ft | 434 kts | 343° |
| 2026-05-07 14:53 | 47.34871 | 21.81500 | 38019 ft | 434 kts | 343° |
| 2026-05-07 14:54 | 47.40659 | 21.78977 | 38018 ft | 433 kts | 343° |
| 2026-05-07 14:54 | 47.46447 | 21.76448 | 38014 ft | 433 kts | 343° |
| 2026-05-07 14:55 | 47.52237 | 21.73912 | 38010 ft | 433 kts | 343° |
| 2026-05-07 14:55 | 47.57986 | 21.71389 | 38006 ft | 432 kts | 343° |
| 2026-05-07 14:56 | 47.63749 | 21.68854 | 38001 ft | 431 kts | 343° |
| 2026-05-07 14:56 | 47.69502 | 21.66317 | 37997 ft | 431 kts | 343° |
| 2026-05-07 14:57 | 47.75246 | 21.63779 | 37996 ft | 430 kts | 343° |
| 2026-05-07 14:57 | 47.80852 | 21.61295 | 38000 ft | 417 kts | 343° |
| 2026-05-07 14:58 | 47.86443 | 21.58813 | 38001 ft | 421 kts | 343° |
| 2026-05-07 14:58 | 47.92043 | 21.56321 | 38000 ft | 420 kts | 343° |
| 2026-05-07 14:59 | 47.97650 | 21.53821 | 38000 ft | 420 kts | 343° |
| 2026-05-07 14:59 | 48.03211 | 21.51335 | 38000 ft | 420 kts | 343° |
| 2026-05-07 15:00 | 48.08825 | 21.48820 | 38000 ft | 420 kts | 343° |
| 2026-05-07 15:00 | 48.14416 | 21.46309 | 37999 ft | 420 kts | 343° |
| 2026-05-07 15:01 | 48.19078 | 21.44212 | 37999 ft | 420 kts | 343° |
| 2026-05-07 15:01 | 48.24676 | 21.41688 | 37999 ft | 420 kts | 343° |
| 2026-05-07 15:02 | 48.30271 | 21.39159 | 37987 ft | 420 kts | 343° |
| 2026-05-07 15:02 | 48.35861 | 21.36627 | 37985 ft | 420 kts | 343° |
| 2026-05-07 15:03 | 48.41424 | 21.34103 | 37978 ft | 420 kts | 343° |
| 2026-05-07 15:03 | 48.47041 | 21.31572 | 37980 ft | 420 kts | 345° |
| 2026-05-07 15:04 | 48.52809 | 21.30103 | 38176 ft | 422 kts | 356° |
| 2026-05-07 15:04 | 48.55738 | 21.29969 | 38333 ft | 422 kts | 1° |
| 2026-05-07 15:04 | 48.58633 | 21.30214 | 38473 ft | 422 kts | 6° |
| 2026-05-07 15:05 | 48.61556 | 21.30700 | 38611 ft | 422 kts | 6° |
| 2026-05-07 15:05 | 48.64476 | 21.31164 | 38750 ft | 422 kts | 6° |
| 2026-05-07 15:05 | 48.67404 | 21.31626 | 38887 ft | 422 kts | 6° |
| 2026-05-07 15:05 | 48.70324 | 21.32094 | 38984 ft | 423 kts | 6° |
| 2026-05-07 15:06 | 48.76167 | 21.33047 | 38997 ft | 421 kts | 6° |
| 2026-05-07 15:06 | 48.82002 | 21.34009 | 39005 ft | 422 kts | 6° |
| 2026-05-07 15:07 | 48.87841 | 21.34975 | 39001 ft | 422 kts | 6° |
| 2026-05-07 15:07 | 48.93660 | 21.35939 | 38997 ft | 424 kts | 6° |
| 2026-05-07 15:08 | 48.99531 | 21.36914 | 38995 ft | 425 kts | 6° |
| 2026-05-07 15:08 | 49.05438 | 21.37899 | 39002 ft | 431 kts | 6° |
| 2026-05-07 15:09 | 49.11439 | 21.38932 | 38997 ft | 436 kts | 6° |
| 2026-05-07 15:09 | 49.17421 | 21.39944 | 39002 ft | 432 kts | 6° |
| 2026-05-07 15:10 | 49.23409 | 21.40945 | 38993 ft | 434 kts | 6° |
| 2026-05-07 15:10 | 49.29373 | 21.41942 | 38995 ft | 434 kts | 6° |
| 2026-05-07 15:11 | 49.35370 | 21.42948 | 38993 ft | 433 kts | 6° |
| 2026-05-07 15:11 | 49.41358 | 21.43971 | 38990 ft | 433 kts | 8° |
| 2026-05-07 15:12 | 49.47298 | 21.45530 | 38980 ft | 433 kts | 9° |
| 2026-05-07 15:12 | 49.53232 | 21.47078 | 38984 ft | 432 kts | 9° |
| 2026-05-07 15:13 | 49.59163 | 21.48633 | 38986 ft | 432 kts | 9° |
| 2026-05-07 15:13 | 49.65092 | 21.50197 | 38995 ft | 432 kts | 9° |
| 2026-05-07 15:14 | 49.71028 | 21.51766 | 38986 ft | 433 kts | 9° |
| 2026-05-07 15:14 | 49.76971 | 21.53342 | 39004 ft | 433 kts | 9° |
| 2026-05-07 15:15 | 49.82912 | 21.54921 | 39005 ft | 434 kts | 9° |
| 2026-05-07 15:15 | 49.88869 | 21.56509 | 39003 ft | 434 kts | 9° |
| 2026-05-07 15:16 | 49.94826 | 21.58100 | 39012 ft | 435 kts | 9° |
| 2026-05-07 15:16 | 50.00762 | 21.59691 | 39012 ft | 435 kts | 9° |
| 2026-05-07 15:17 | 50.06736 | 21.61296 | 39010 ft | 435 kts | 9° |
| 2026-05-07 15:17 | 50.12704 | 21.62903 | 39018 ft | 435 kts | 9° |
| 2026-05-07 15:18 | 50.18673 | 21.64515 | 39012 ft | 435 kts | 9° |
| 2026-05-07 15:18 | 50.24639 | 21.66130 | 39020 ft | 435 kts | 9° |
| 2026-05-07 15:19 | 50.30603 | 21.67749 | 39017 ft | 435 kts | 9° |
| 2026-05-07 15:19 | 50.36566 | 21.69371 | 39008 ft | 434 kts | 9° |
| 2026-05-07 15:20 | 50.42479 | 21.70985 | 39007 ft | 434 kts | 9° |
| 2026-05-07 15:20 | 50.48429 | 21.72612 | 39012 ft | 433 kts | 9° |
| 2026-05-07 15:21 | 50.54370 | 21.74242 | 39008 ft | 433 kts | 9° |
| 2026-05-07 15:21 | 50.60306 | 21.75873 | 39004 ft | 433 kts | 9° |
| 2026-05-07 15:22 | 50.66230 | 21.77505 | 38999 ft | 432 kts | 9° |
| 2026-05-07 15:22 | 50.72158 | 21.79141 | 38996 ft | 432 kts | 9° |
| 2026-05-07 15:23 | 50.78041 | 21.80769 | 38994 ft | 431 kts | 9° |
| 2026-05-07 15:23 | 50.83960 | 21.82411 | 38987 ft | 431 kts | 9° |
| 2026-05-07 15:24 | 50.89873 | 21.84056 | 38993 ft | 431 kts | 9° |
| 2026-05-07 15:24 | 50.95788 | 21.85705 | 38986 ft | 431 kts | 9° |
| 2026-05-07 15:25 | 51.01704 | 21.87359 | 38994 ft | 431 kts | 9° |
| 2026-05-07 15:25 | 51.07629 | 21.89019 | 38989 ft | 432 kts | 9° |
| 2026-05-07 15:26 | 51.13544 | 21.90676 | 38995 ft | 432 kts | 9° |
| 2026-05-07 15:26 | 51.19425 | 21.92312 | 38990 ft | 432 kts | 9° |
| 2026-05-07 15:27 | 51.25357 | 21.93944 | 38996 ft | 433 kts | 9° |
| 2026-05-07 15:27 | 51.31301 | 21.95588 | 38996 ft | 433 kts | 9° |
| 2026-05-07 15:28 | 51.37249 | 21.97239 | 39005 ft | 433 kts | 9° |
| 2026-05-07 15:28 | 51.43187 | 21.98895 | 39003 ft | 433 kts | 9° |
| 2026-05-07 15:29 | 51.49129 | 22.00611 | 39000 ft | 434 kts | 10° |
| 2026-05-07 15:29 | 51.55036 | 22.02330 | 39010 ft | 434 kts | 10° |
| 2026-05-07 15:30 | 51.60977 | 22.04057 | 39003 ft | 434 kts | 10° |
| 2026-05-07 15:30 | 51.66922 | 22.05783 | 39012 ft | 434 kts | 10° |
| 2026-05-07 15:31 | 51.72806 | 22.07492 | 39011 ft | 434 kts | 10° |
| 2026-05-07 15:31 | 51.78752 | 22.09225 | 38999 ft | 433 kts | 10° |
| 2026-05-07 15:32 | 51.84698 | 22.10965 | 39008 ft | 433 kts | 10° |
| 2026-05-07 15:32 | 51.90622 | 22.12707 | 38994 ft | 433 kts | 10° |
| 2026-05-07 15:33 | 51.96553 | 22.14456 | 39001 ft | 433 kts | 10° |
| 2026-05-07 15:33 | 52.02481 | 22.16207 | 38991 ft | 432 kts | 10° |
| 2026-05-07 15:34 | 52.08362 | 22.17950 | 38998 ft | 432 kts | 10° |
| 2026-05-07 15:34 | 52.14283 | 22.19709 | 38990 ft | 432 kts | 10° |
| 2026-05-07 15:35 | 52.20189 | 22.21619 | 39000 ft | 432 kts | 12° |
| 2026-05-07 15:35 | 52.26061 | 22.23734 | 38998 ft | 432 kts | 12° |
| 2026-05-07 15:36 | 52.31937 | 22.25824 | 38999 ft | 432 kts | 12° |
| 2026-05-07 15:36 | 52.37816 | 22.27897 | 38992 ft | 432 kts | 12° |
| 2026-05-07 15:37 | 52.43700 | 22.29973 | 38990 ft | 432 kts | 12° |
| 2026-05-07 15:37 | 52.49584 | 22.32057 | 38994 ft | 432 kts | 12° |
| 2026-05-07 15:38 | 52.55467 | 22.34147 | 39001 ft | 433 kts | 12° |
| 2026-05-07 15:38 | 52.61310 | 22.36228 | 39001 ft | 433 kts | 12° |
| 2026-05-07 15:39 | 52.67196 | 22.38330 | 39007 ft | 433 kts | 12° |
| 2026-05-07 15:39 | 52.73091 | 22.40441 | 39004 ft | 433 kts | 12° |
| 2026-05-07 15:40 | 52.78982 | 22.42556 | 39008 ft | 433 kts | 12° |
| 2026-05-07 15:40 | 52.84832 | 22.44664 | 39004 ft | 433 kts | 12° |
| 2026-05-07 15:41 | 52.90678 | 22.46776 | 39008 ft | 433 kts | 12° |
| 2026-05-07 15:41 | 52.96561 | 22.48908 | 38999 ft | 433 kts | 12° |
| 2026-05-07 15:42 | 53.02454 | 22.51049 | 39005 ft | 433 kts | 12° |
| 2026-05-07 15:42 | 53.08347 | 22.53196 | 38999 ft | 433 kts | 12° |
| 2026-05-07 15:43 | 53.14237 | 22.55348 | 39003 ft | 433 kts | 12° |
| 2026-05-07 15:43 | 53.20125 | 22.57505 | 39008 ft | 433 kts | 12° |
| 2026-05-07 15:44 | 53.25947 | 22.59644 | 39007 ft | 433 kts | 12° |
| 2026-05-07 15:44 | 53.31830 | 22.61810 | 39006 ft | 433 kts | 12° |
| 2026-05-07 15:45 | 53.37706 | 22.63980 | 38999 ft | 432 kts | 12° |
| 2026-05-07 15:45 | 53.43586 | 22.66157 | 39003 ft | 432 kts | 12° |
| 2026-05-07 15:46 | 53.52401 | 22.69433 | 38993 ft | 432 kts | 12° |
| 2026-05-07 15:47 | 53.58277 | 22.71625 | 38998 ft | 432 kts | 12° |
| 2026-05-07 15:47 | 53.64116 | 22.73809 | 38998 ft | 432 kts | 12° |
| 2026-05-07 15:48 | 53.69888 | 22.75974 | 38999 ft | 432 kts | 12° |
| 2026-05-07 15:48 | 53.75757 | 22.78182 | 38997 ft | 432 kts | 12° |
| 2026-05-07 15:49 | 53.80655 | 22.80028 | 38994 ft | 432 kts | 12° |
| 2026-05-07 15:49 | 53.87356 | 22.82561 | 39001 ft | 432 kts | 12° |
| 2026-05-07 15:50 | 53.93222 | 22.84785 | 38993 ft | 432 kts | 12° |
| 2026-05-07 15:50 | 53.99104 | 22.87021 | 38998 ft | 432 kts | 12° |
| 2026-05-07 15:51 | 54.03991 | 22.88884 | 38999 ft | 433 kts | 12° |
| 2026-05-07 15:51 | 54.09739 | 22.91880 | 39001 ft | 433 kts | 21° |
| 2026-05-07 15:52 | 54.15347 | 22.95628 | 39001 ft | 433 kts | 21° |
| 2026-05-07 15:52 | 54.20960 | 22.99350 | 39001 ft | 433 kts | 21° |
| 2026-05-07 15:53 | 54.26583 | 23.03109 | 39000 ft | 433 kts | 21° |
| 2026-05-07 15:53 | 54.32296 | 23.06354 | 39003 ft | 433 kts | 12° |
| 2026-05-07 15:54 | 54.38218 | 23.08263 | 39007 ft | 433 kts | 10° |
| 2026-05-07 15:54 | 54.44143 | 23.10200 | 39004 ft | 433 kts | 10° |
| 2026-05-07 15:55 | 54.50068 | 23.12124 | 38999 ft | 433 kts | 10° |
| 2026-05-07 15:55 | 54.55995 | 23.14043 | 39004 ft | 433 kts | 10° |
| 2026-05-07 15:56 | 54.61885 | 23.15954 | 39007 ft | 433 kts | 10° |
| 2026-05-07 15:56 | 54.67826 | 23.17888 | 39016 ft | 433 kts | 10° |
| 2026-05-07 15:57 | 54.73754 | 23.19824 | 39004 ft | 433 kts | 10° |
| 2026-05-07 15:57 | 54.79643 | 23.21752 | 39002 ft | 433 kts | 10° |
| 2026-05-07 15:58 | 54.85568 | 23.23698 | 39008 ft | 433 kts | 10° |
| 2026-05-07 15:58 | 54.91489 | 23.25649 | 39007 ft | 433 kts | 10° |
| 2026-05-07 15:59 | 54.97412 | 23.27606 | 39000 ft | 432 kts | 10° |
| 2026-05-07 15:59 | 55.03294 | 23.29555 | 39003 ft | 432 kts | 10° |
| 2026-05-07 16:00 | 55.09203 | 23.31519 | 39002 ft | 432 kts | 10° |
| 2026-05-07 16:00 | 55.15117 | 23.33491 | 39001 ft | 432 kts | 10° |
| 2026-05-07 16:01 | 55.21012 | 23.35462 | 38992 ft | 431 kts | 11° |
| 2026-05-07 16:01 | 55.26911 | 23.37441 | 38995 ft | 431 kts | 11° |
| 2026-05-07 16:02 | 55.32660 | 23.39375 | 38988 ft | 431 kts | 11° |
| 2026-05-07 16:02 | 55.38542 | 23.41360 | 38987 ft | 431 kts | 11° |
| 2026-05-07 16:03 | 55.44434 | 23.43354 | 38990 ft | 431 kts | 11° |
| 2026-05-07 16:03 | 55.50332 | 23.45356 | 38996 ft | 431 kts | 11° |
| 2026-05-07 16:04 | 55.56225 | 23.47363 | 38989 ft | 432 kts | 11° |
| 2026-05-07 16:04 | 55.62135 | 23.49381 | 38997 ft | 432 kts | 11° |
| 2026-05-07 16:05 | 55.68037 | 23.51403 | 39002 ft | 432 kts | 11° |
| 2026-05-07 16:05 | 55.73938 | 23.53431 | 38995 ft | 432 kts | 11° |
| 2026-05-07 16:06 | 55.79822 | 23.55460 | 39004 ft | 433 kts | 11° |
| 2026-05-07 16:06 | 55.85741 | 23.57507 | 38998 ft | 433 kts | 11° |
| 2026-05-07 16:07 | 55.91654 | 23.59558 | 39005 ft | 433 kts | 11° |
| 2026-05-07 16:07 | 55.97580 | 23.61620 | 39008 ft | 433 kts | 11° |
| 2026-05-07 16:08 | 56.03507 | 23.63688 | 39010 ft | 433 kts | 11° |
| 2026-05-07 16:08 | 56.09390 | 23.65748 | 39005 ft | 433 kts | 11° |
| 2026-05-07 16:09 | 56.15308 | 23.67827 | 39014 ft | 433 kts | 11° |
| 2026-05-07 16:09 | 56.21222 | 23.69910 | 39006 ft | 433 kts | 11° |
| 2026-05-07 16:10 | 56.27147 | 23.72004 | 39012 ft | 433 kts | 11° |
| 2026-05-07 16:10 | 56.33057 | 23.74099 | 38999 ft | 433 kts | 11° |
| 2026-05-07 16:11 | 56.38930 | 23.76202 | 39001 ft | 432 kts | 12° |
| 2026-05-07 16:11 | 56.44811 | 23.78548 | 39005 ft | 432 kts | 12° |
| 2026-05-07 16:12 | 56.50676 | 23.80921 | 39005 ft | 432 kts | 12° |
| 2026-05-07 16:12 | 56.56551 | 23.83276 | 39004 ft | 432 kts | 12° |
| 2026-05-07 16:13 | 56.62423 | 23.85576 | 38998 ft | 431 kts | 11° |
| 2026-05-07 16:13 | 56.68186 | 23.87668 | 38993 ft | 424 kts | 11° |
| 2026-05-07 16:14 | 56.73964 | 23.89779 | 39005 ft | 426 kts | 11° |
| 2026-05-07 16:14 | 56.79789 | 23.91933 | 38995 ft | 426 kts | 11° |
| 2026-05-07 16:15 | 56.85596 | 23.94093 | 38995 ft | 426 kts | 11° |
| 2026-05-07 16:15 | 56.91401 | 23.96259 | 38996 ft | 426 kts | 11° |
| 2026-05-07 16:16 | 56.97236 | 23.98294 | 38998 ft | 426 kts | 9° |
| 2026-05-07 16:16 | 57.03042 | 24.00184 | 39003 ft | 426 kts | 10° |
| 2026-05-07 16:17 | 57.08884 | 24.02120 | 38995 ft | 426 kts | 10° |
| 2026-05-07 16:17 | 57.14726 | 24.04078 | 39005 ft | 426 kts | 10° |
| 2026-05-07 16:18 | 57.20564 | 24.06044 | 39004 ft | 426 kts | 10° |
| 2026-05-07 16:18 | 57.26398 | 24.08015 | 39004 ft | 426 kts | 10° |
| 2026-05-07 16:19 | 57.32204 | 24.09983 | 39006 ft | 426 kts | 10° |
| 2026-05-07 16:19 | 57.38039 | 24.11967 | 38999 ft | 426 kts | 10° |
| 2026-05-07 16:20 | 57.43878 | 24.13958 | 39003 ft | 426 kts | 10° |
| 2026-05-07 16:20 | 57.49706 | 24.15954 | 39000 ft | 426 kts | 10° |
| 2026-05-07 16:21 | 57.55539 | 24.17960 | 39002 ft | 426 kts | 10° |
| 2026-05-07 16:21 | 57.61332 | 24.19958 | 39000 ft | 426 kts | 10° |
| 2026-05-07 16:22 | 57.67169 | 24.21977 | 38997 ft | 426 kts | 10° |
| 2026-05-07 16:22 | 57.72997 | 24.24000 | 38992 ft | 426 kts | 10° |
| 2026-05-07 16:23 | 57.78831 | 24.26032 | 38994 ft | 426 kts | 10° |
| 2026-05-07 16:23 | 57.84633 | 24.28061 | 39000 ft | 426 kts | 12° |
| 2026-05-07 16:24 | 57.90443 | 24.30325 | 39002 ft | 426 kts | 11° |
| 2026-05-07 16:24 | 57.96245 | 24.32590 | 39003 ft | 426 kts | 12° |
| 2026-05-07 16:25 | 58.02024 | 24.35061 | 38992 ft | 426 kts | 13° |
| 2026-05-07 16:25 | 58.07796 | 24.37596 | 39000 ft | 426 kts | 13° |
| 2026-05-07 16:26 | 58.13575 | 24.40146 | 38994 ft | 426 kts | 13° |
| 2026-05-07 16:26 | 58.19347 | 24.42697 | 38993 ft | 426 kts | 13° |
| 2026-05-07 16:27 | 58.25089 | 24.45244 | 39000 ft | 426 kts | 13° |
| 2026-05-07 16:27 | 58.30865 | 24.47813 | 39007 ft | 426 kts | 13° |
| 2026-05-07 16:28 | 58.36636 | 24.50389 | 39003 ft | 426 kts | 13° |
| 2026-05-07 16:28 | 58.42417 | 24.52979 | 39007 ft | 426 kts | 13° |
| 2026-05-07 16:29 | 58.48197 | 24.55576 | 39003 ft | 426 kts | 13° |
| 2026-05-07 16:29 | 58.53907 | 24.58151 | 39000 ft | 419 kts | 13° |
| 2026-05-07 16:30 | 58.59604 | 24.60729 | 38798 ft | 422 kts | 13° |
| 2026-05-07 16:30 | 58.62460 | 24.62024 | 38548 ft | 421 kts | 13° |
| 2026-05-07 16:30 | 58.65301 | 24.63315 | 38300 ft | 419 kts | 13° |
| 2026-05-07 16:30 | 58.68146 | 24.64609 | 37997 ft | 420 kts | 13° |
| 2026-05-07 16:31 | 58.70966 | 24.65895 | 37569 ft | 419 kts | 13° |
| 2026-05-07 16:31 | 58.73793 | 24.67185 | 37124 ft | 416 kts | 13° |
| 2026-05-07 16:31 | 58.76619 | 24.68478 | 36537 ft | 416 kts | 13° |
| 2026-05-07 16:31 | 58.79444 | 24.69772 | 35933 ft | 416 kts | 13° |
| 2026-05-07 16:32 | 58.82262 | 24.71065 | 35293 ft | 417 kts | 13° |
| 2026-05-07 16:32 | 58.85062 | 24.72352 | 34528 ft | 421 kts | 13° |
| 2026-05-07 16:32 | 58.87941 | 24.73678 | 33568 ft | 430 kts | 13° |
| 2026-05-07 16:32 | 58.90878 | 24.75032 | 32543 ft | 439 kts | 13° |
| 2026-05-07 16:33 | 58.93857 | 24.76408 | 31795 ft | 440 kts | 13° |
| 2026-05-07 16:33 | 58.96838 | 24.77788 | 31041 ft | 441 kts | 13° |
| 2026-05-07 16:33 | 58.99844 | 24.78862 | 30227 ft | 442 kts | 4° |
| 2026-05-07 16:33 | 59.02962 | 24.78957 | 29139 ft | 449 kts | 358° |
| 2026-05-07 16:34 | 59.06110 | 24.78728 | 27958 ft | 457 kts | 358° |
| 2026-05-07 16:34 | 59.09291 | 24.78549 | 26770 ft | 456 kts | 359° |
| 2026-05-07 16:34 | 59.12441 | 24.78497 | 25789 ft | 450 kts | 360° |
| 2026-05-07 16:34 | 59.15552 | 24.78536 | 24843 ft | 443 kts | 0° |
| 2026-05-07 16:35 | 59.18594 | 24.78624 | 24080 ft | 432 kts | 0° |
| 2026-05-07 16:35 | 59.21529 | 24.78729 | 23338 ft | 422 kts | 1° |
| 2026-05-07 16:35 | 59.24434 | 24.78838 | 22595 ft | 413 kts | 1° |
| 2026-05-07 16:35 | 59.27283 | 24.78946 | 21840 ft | 405 kts | 1° |
| 2026-05-07 16:36 | 59.30071 | 24.79051 | 21094 ft | 397 kts | 1° |
| 2026-05-07 16:36 | 59.32810 | 24.79154 | 20341 ft | 390 kts | 1° |
| 2026-05-07 16:36 | 59.35502 | 24.79253 | 19591 ft | 383 kts | 1° |
| 2026-05-07 16:36 | 59.38163 | 24.79352 | 18846 ft | 380 kts | 1° |
| 2026-05-07 16:37 | 59.40770 | 24.79449 | 18380 ft | 367 kts | 1° |
| 2026-05-07 16:37 | 59.43261 | 24.79542 | 18020 ft | 351 kts | 1° |
| 2026-05-07 16:37 | 59.45690 | 24.79632 | 17356 ft | 346 kts | 1° |
| 2026-05-07 16:37 | 59.48057 | 24.79720 | 16658 ft | 343 kts | 1° |
| 2026-05-07 16:38 | 59.50428 | 24.79808 | 16115 ft | 337 kts | 1° |
| 2026-05-07 16:38 | 59.52781 | 24.79896 | 15650 ft | 340 kts | 1° |
| 2026-05-07 16:38 | 59.55141 | 24.79984 | 15174 ft | 338 kts | 1° |
| 2026-05-07 16:38 | 59.57481 | 24.80072 | 14730 ft | 336 kts | 1° |
| 2026-05-07 16:39 | 59.59821 | 24.80159 | 14258 ft | 335 kts | 1° |
| 2026-05-07 16:39 | 59.62146 | 24.80246 | 13790 ft | 333 kts | 1° |
| 2026-05-07 16:39 | 59.64453 | 24.80332 | 13334 ft | 330 kts | 1° |
| 2026-05-07 16:39 | 59.65971 | 24.80389 | 13025 ft | 329 kts | 1° |
| 2026-05-07 16:40 | 59.68253 | 24.80475 | 12581 ft | 326 kts | 1° |
| 2026-05-07 16:40 | 59.70512 | 24.80560 | 12132 ft | 323 kts | 1° |
| 2026-05-07 16:40 | 59.72749 | 24.80644 | 11686 ft | 321 kts | 1° |
| 2026-05-07 16:40 | 59.74970 | 24.80728 | 11242 ft | 318 kts | 1° |
| 2026-05-07 16:41 | 59.77177 | 24.80811 | 10808 ft | 316 kts | 1° |
| 2026-05-07 16:41 | 59.79361 | 24.80894 | 10394 ft | 312 kts | 1° |
| 2026-05-07 16:41 | 59.81521 | 24.80976 | 10144 ft | 312 kts | 1° |
| 2026-05-07 16:41 | 59.83702 | 24.81058 | 9908 ft | 312 kts | 1° |
| 2026-05-07 16:42 | 59.85860 | 24.81140 | 9779 ft | 310 kts | 1° |
| 2026-05-07 16:42 | 59.88017 | 24.81222 | 9655 ft | 310 kts | 1° |
| 2026-05-07 16:42 | 59.90180 | 24.81305 | 9394 ft | 311 kts | 1° |
| 2026-05-07 16:42 | 59.92331 | 24.81387 | 8993 ft | 309 kts | 0° |
| 2026-05-07 16:43 | 59.94448 | 24.80965 | 8569 ft | 304 kts | 346° |
| 2026-05-07 16:43 | 59.96485 | 24.79929 | 8195 ft | 301 kts | 345° |
| 2026-05-07 16:43 | 59.98507 | 24.78882 | 7834 ft | 297 kts | 345° |
| 2026-05-07 16:43 | 60.00467 | 24.77868 | 7699 ft | 285 kts | 345° |
| 2026-05-07 16:44 | 60.02354 | 24.76892 | 7446 ft | 278 kts | 345° |
| 2026-05-07 16:44 | 60.04217 | 24.75930 | 7116 ft | 274 kts | 345° |
| 2026-05-07 16:44 | 60.06028 | 24.74994 | 7019 ft | 277 kts | 345° |
| 2026-05-07 16:44 | 60.07893 | 24.74029 | 7000 ft | 276 kts | 345° |
| 2026-05-07 16:45 | 60.09750 | 24.73068 | 6998 ft | 276 kts | 345° |
| 2026-05-07 16:45 | 60.11603 | 24.72109 | 6882 ft | 274 kts | 345° |
| 2026-05-07 16:45 | 60.13447 | 24.71155 | 6560 ft | 273 kts | 345° |
| 2026-05-07 16:45 | 60.15284 | 24.70204 | 6188 ft | 272 kts | 345° |
| 2026-05-07 16:46 | 60.17115 | 24.69257 | 5810 ft | 271 kts | 345° |
| 2026-05-07 16:46 | 60.18912 | 24.68327 | 5439 ft | 270 kts | 345° |
| 2026-05-07 16:46 | 60.20726 | 24.67387 | 5083 ft | 268 kts | 345° |
| 2026-05-07 16:46 | 60.22515 | 24.66460 | 4950 ft | 268 kts | 345° |
| 2026-05-07 16:47 | 60.24313 | 24.65417 | 4926 ft | 268 kts | 341° |
| 2026-05-07 16:47 | 60.26078 | 24.64175 | 4924 ft | 268 kts | 340° |
| 2026-05-07 16:47 | 60.27836 | 24.62925 | 4927 ft | 268 kts | 340° |
| 2026-05-07 16:47 | 60.29594 | 24.61674 | 4923 ft | 268 kts | 340° |
| 2026-05-07 16:48 | 60.31353 | 24.60422 | 4923 ft | 268 kts | 340° |
| 2026-05-07 16:48 | 60.33099 | 24.59178 | 4881 ft | 262 kts | 340° |
| 2026-05-07 16:48 | 60.34789 | 24.57975 | 4821 ft | 252 kts | 340° |
| 2026-05-07 16:48 | 60.36413 | 24.56820 | 4716 ft | 241 kts | 340° |
| 2026-05-07 16:49 | 60.37950 | 24.55727 | 4555 ft | 235 kts | 340° |
| 2026-05-07 16:49 | 60.39484 | 24.54636 | 4271 ft | 233 kts | 340° |
| 2026-05-07 16:49 | 60.41072 | 24.54035 | 3963 ft | 233 kts | 5° |
| 2026-05-07 16:49 | 60.42580 | 24.55131 | 3653 ft | 233 kts | 37° |
| 2026-05-07 16:50 | 60.43578 | 24.57671 | 3352 ft | 233 kts | 67° |
| 2026-05-07 16:50 | 60.44147 | 24.60739 | 3063 ft | 233 kts | 70° |
| 2026-05-07 16:50 | 60.44693 | 24.63813 | 2818 ft | 231 kts | 70° |
| 2026-05-07 16:50 | 60.45236 | 24.66874 | 2553 ft | 230 kts | 70° |
| 2026-05-07 16:51 | 60.45774 | 24.69919 | 2234 ft | 229 kts | 70° |
| 2026-05-07 16:51 | 60.46308 | 24.72943 | 1982 ft | 225 kts | 70° |
| 2026-05-07 16:51 | 60.46595 | 24.76076 | 1927 ft | 229 kts | 96° |
| 2026-05-07 16:51 | 60.46057 | 24.78966 | 1924 ft | 214 kts | 127° |
| 2026-05-07 16:52 | 60.45155 | 24.81229 | 1920 ft | 199 kts | 130° |
| 2026-05-07 16:52 | 60.44276 | 24.83367 | 1926 ft | 199 kts | 130° |
| 2026-05-07 16:52 | 60.43331 | 24.85353 | 1926 ft | 194 kts | 141° |
| 2026-05-07 16:52 | 60.42233 | 24.86902 | 1925 ft | 192 kts | 150° |
| 2026-05-07 16:53 | 60.41077 | 24.88185 | 1940 ft | 179 kts | 153° |
| 2026-05-07 16:53 | 60.40014 | 24.89280 | 1716 ft | 166 kts | 154° |
| 2026-05-07 16:53 | 60.39065 | 24.90254 | 1557 ft | 145 kts | 154° |
| 2026-05-07 16:53 | 60.38194 | 24.91150 | 1315 ft | 137 kts | 154° |
| 2026-05-07 16:54 | 60.37328 | 24.92048 | 1105 ft | 142 kts | 154° |
| 2026-05-07 16:54 | 60.36446 | 24.92949 | 939 ft | 141 kts | 154° |
| 2026-05-07 16:54 | 60.35576 | 24.93854 | 766 ft | 141 kts | 153° |
| 2026-05-07 16:54 | 60.34695 | 24.94758 | 591 ft | 143 kts | 154° |
| 2026-05-07 16:55 | 60.33788 | 24.95668 | 369 ft | 146 kts | 154° |
| 2026-05-07 16:55 | 60.32899 | 24.96576 | 208 ft | 143 kts | 153° |
| 2026-05-07 16:55 | 60.32082 | 24.97411 | 152 ft | 111 kts | 152° |
| 2026-05-07 16:55 | 60.31577 | 24.97937 | 152 ft | 53 kts | 153° |
| 2026-05-07 16:56 | 60.31417 | 24.97876 | 160 ft | 16 kts | 239° |
| 2026-05-07 16:56 | 60.31408 | 24.97841 | 160 ft | 0 kts | 242° |
| 2026-05-07 16:56 | 60.31406 | 24.97835 | 160 ft | 2 kts | 242° |
| 2026-05-07 16:57 | 60.31411 | 24.97793 | 161 ft | 6 kts | 299° |
| 2026-05-07 16:57 | 60.31475 | 24.97709 | 161 ft | 16 kts | 332° |
| 2026-05-07 16:57 | 60.31577 | 24.97614 | 160 ft | 16 kts | 327° |
| 2026-05-07 16:57 | 60.31636 | 24.97511 | 161 ft | 8 kts | 276° |
| 2026-05-07 16:58 | 60.31643 | 24.97390 | 161 ft | 6 kts | 318° |
| 2026-05-07 16:58 | 60.31651 | 24.97318 | 161 ft | 6 kts | 252° |
| 2026-05-07 16:58 | 60.31642 | 24.97283 | 161 ft | 2 kts | 244° |
| 2026-05-07 16:58 | 60.31634 | 24.97249 | 161 ft | 3 kts | 243° |
| 2026-05-07 16:59 | 60.31633 | 24.97245 | 161 ft | 0 kts | 243° |